createdAt,value
2022-08-17T00:00:33.295Z,17.58
2022-08-17T00:05:42.146Z,16.65
2022-08-17T00:10:45.926Z,15.77
2022-08-17T00:15:47.961Z,15.08
2022-08-17T00:20:50.178Z,15.98
2022-08-17T00:25:53.524Z,18.71
2022-08-17T00:30:55.602Z,18.99
2022-08-17T00:35:58.653Z,20.30
2022-08-17T00:41:01.701Z,22.10
2022-08-17T00:46:11.226Z,22.08
2022-08-17T00:51:18.439Z,21.96
2022-08-17T00:56:27.610Z,25.00
2022-08-17T01:01:30.369Z,28.59
2022-08-17T01:06:33.252Z,27.09
2022-08-17T01:11:37.173Z,31.56
2022-08-17T01:16:39.240Z,37.13
2022-08-17T01:21:51.413Z,35.31
2022-08-17T01:26:53.807Z,35.21
2022-08-17T01:32:00.981Z,35.56
2022-08-17T01:37:03.369Z,35.02
2022-08-17T01:42:08.968Z,32.82
2022-08-17T01:47:12.993Z,30.37
2022-08-17T01:52:15.961Z,33.53
2022-08-17T01:57:18.309Z,33.16
2022-08-17T02:02:30.327Z,28.93
2022-08-17T02:07:33.233Z,28.87
2022-08-17T02:12:55.720Z,28.18
2022-08-17T02:17:58.076Z,28.71
2022-08-17T02:23:01.544Z,27.29
2022-08-17T02:28:04.623Z,26.48
2022-08-17T02:33:09.364Z,26.10
2022-08-17T02:38:11.740Z,26.23
2022-08-17T02:43:13.813Z,31.91
2022-08-17T02:48:16.128Z,31.52
2022-08-17T02:53:35.892Z,35.02
2022-08-17T02:58:38.469Z,36.77
2022-08-17T03:03:40.790Z,38.84
2022-08-17T03:08:45.094Z,37.83
2022-08-17T03:13:47.112Z,35.40
2022-08-17T03:18:49.499Z,32.67
2022-08-17T03:23:54.583Z,31.61
2022-08-17T03:28:56.801Z,31.33
2022-08-17T03:33:58.814Z,30.80
2022-08-17T03:39:00.932Z,30.61
2022-08-17T03:44:03.549Z,31.53
2022-08-17T03:49:26.222Z,32.23
2022-08-17T03:54:46.868Z,33.02
2022-08-17T03:59:49.678Z,31.98
2022-08-17T04:04:52.539Z,32.38
2022-08-17T04:09:55.349Z,31.92
2022-08-17T04:14:57.892Z,30.57
2022-08-17T04:19:59.871Z,30.09
2022-08-17T04:25:22.357Z,30.27
2022-08-17T04:30:25.085Z,28.61
2022-08-17T04:35:30.500Z,29.17
2022-08-17T04:40:53.587Z,29.21
2022-08-17T04:45:59.496Z,26.68
2022-08-17T04:51:01.987Z,26.07
2022-08-17T04:56:04.473Z,23.26
2022-08-17T05:01:07.115Z,20.45
2022-08-17T05:06:09.430Z,18.83
2022-08-17T05:11:11.522Z,19.19
2022-08-17T05:16:13.576Z,17.90
2022-08-17T05:21:16.337Z,16.69
2022-08-17T05:26:26.124Z,16.13
2022-08-17T05:31:29.973Z,15.18
2022-08-17T05:36:43.515Z,10.62
2022-08-17T05:41:47.949Z,13.29
2022-08-17T05:46:52.207Z,13.42
2022-08-17T05:52:13.066Z,13.78
2022-08-17T05:57:53.645Z,18.13
2022-08-17T06:03:14.435Z,23.24
2022-08-17T06:08:39.782Z,22.66
2022-08-17T06:13:56.771Z,21.83
2022-08-17T06:19:02.587Z,19.75
2022-08-17T06:24:23.906Z,18.90
2022-08-17T06:29:39.109Z,16.70
2022-08-17T06:34:43.731Z,15.71
2022-08-17T06:39:48.941Z,15.14
2022-08-17T06:45:07.722Z,14.64
2022-08-17T06:50:23.192Z,14.07
2022-08-17T06:55:58.894Z,15.69
2022-08-17T07:01:06.721Z,12.16
2022-08-17T07:06:15.453Z,8.93
2022-08-17T07:11:46.637Z,4.44
2022-08-17T07:16:54.366Z,0.23
2022-08-17T07:22:05.592Z,-3.18
2022-08-17T07:27:13.376Z,-4.95
2022-08-17T07:32:19.649Z,118.79
2022-08-17T07:37:21.550Z,118.76
2022-08-17T07:42:23.670Z,-5.50
2022-08-17T07:47:44.112Z,-2.93
2022-08-17T07:52:47.880Z,-1.73
2022-08-17T07:57:57.949Z,-1.25
2022-08-17T08:03:04.889Z,-4.17
2022-08-17T08:08:28.186Z,-3.34
2022-08-17T08:13:30.822Z,-3.16
2022-08-17T08:18:54.787Z,-3.06
2022-08-17T08:24:13.373Z,-4.09
2022-08-17T08:29:41.357Z,118.89
2022-08-17T08:35:30.991Z,115.92
2022-08-17T08:40:51.924Z,112.14
2022-08-17T08:46:03.147Z,110.15
2022-08-17T08:51:28.013Z,110.74
2022-08-17T08:57:21.588Z,111.29
2022-08-17T09:02:37.154Z,112.29
2022-08-17T09:07:49.631Z,108.52
2022-08-17T09:13:10.287Z,108.60
2022-08-17T09:19:01.796Z,106.16
2022-08-17T09:24:12.714Z,104.86
2022-08-17T09:29:16.824Z,104.05
2022-08-17T09:34:29.590Z,102.10
2022-08-17T09:39:42.736Z,98.00
2022-08-17T09:44:55.326Z,96.79
2022-08-17T09:50:02.413Z,97.10
2022-08-17T09:55:05.578Z,95.65
2022-08-17T10:00:30.542Z,94.15
2022-08-17T10:05:56.623Z,91.63
2022-08-17T10:11:17.045Z,90.34
2022-08-17T10:16:29.202Z,87.31
2022-08-17T10:22:00.686Z,84.89
2022-08-17T10:27:11.168Z,84.78
2022-08-17T10:32:28.038Z,87.51
2022-08-17T10:37:43.507Z,85.62
2022-08-17T10:42:53.950Z,84.73
2022-08-17T10:48:06.331Z,85.77
2022-08-17T10:53:08.885Z,87.18
2022-08-17T10:58:21.883Z,86.13
2022-08-17T11:03:25.515Z,86.38
2022-08-17T11:08:57.491Z,84.90
2022-08-17T11:14:17.007Z,83.52
2022-08-17T11:19:24.972Z,82.79
2022-08-17T11:25:19.719Z,82.49
2022-08-17T11:30:40.376Z,83.16
2022-08-17T11:35:49.983Z,81.68
2022-08-17T11:41:13.608Z,83.29
2022-08-17T11:46:52.683Z,82.07
2022-08-17T11:51:54.666Z,80.91
2022-08-17T11:56:59.032Z,79.67
2022-08-17T12:02:06.733Z,82.55
2022-08-17T12:07:30.161Z,79.32
2022-08-17T12:12:35.958Z,79.50
2022-08-17T12:17:40.691Z,79.24
2022-08-17T12:23:16.063Z,80.94
2022-08-17T12:28:30.777Z,81.54
2022-08-17T12:33:34.122Z,79.17
2022-08-17T12:38:38.426Z,78.03
2022-08-17T12:43:40.465Z,79.01
2022-08-17T12:48:58.952Z,78.50
2022-08-17T12:54:02.162Z,77.43
2022-08-17T12:59:04.199Z,78.31
2022-08-17T13:04:07.235Z,80.12
2022-08-17T13:09:18.021Z,79.91
2022-08-17T13:14:20.282Z,80.58
2022-08-17T13:19:32.974Z,81.11
2022-08-17T13:24:53.203Z,82.69
2022-08-17T13:29:59.725Z,81.34
2022-08-17T13:35:12.481Z,80.52
2022-08-17T13:40:18.994Z,78.11
2022-08-17T13:45:35.377Z,79.06
2022-08-17T13:50:58.817Z,77.78
2022-08-17T13:56:38.541Z,78.18
2022-08-17T14:01:52.576Z,75.63
2022-08-17T14:07:12.097Z,78.16
2022-08-17T14:12:16.658Z,80.04
2022-08-17T14:17:19.598Z,81.58
2022-08-17T14:22:32.503Z,82.34
2022-08-17T14:27:47.082Z,80.88
2022-08-17T14:32:57.551Z,80.89
2022-08-17T14:38:00.025Z,80.94
2022-08-17T14:43:02.149Z,83.59
2022-08-17T14:48:07.896Z,84.23
2022-08-17T14:53:12.660Z,84.96
2022-08-17T14:58:14.785Z,84.68
2022-08-17T15:03:18.393Z,83.58
2022-08-17T15:08:20.463Z,82.46
2022-08-17T15:13:25.058Z,81.61
2022-08-17T15:18:27.468Z,80.81
2022-08-17T15:23:29.661Z,81.53
2022-08-17T15:28:32.214Z,81.10
2022-08-17T15:33:34.462Z,79.91
2022-08-17T15:38:39.422Z,79.95
2022-08-17T15:43:43.650Z,80.51
2022-08-17T15:48:53.116Z,80.65
2022-08-17T15:54:04.503Z,81.94
2022-08-17T15:59:21.526Z,87.83
2022-08-17T16:04:29.969Z,88.73
2022-08-17T16:09:33.247Z,90.51
2022-08-17T16:14:36.489Z,90.63
2022-08-17T16:19:40.282Z,91.53
2022-08-17T16:24:56.843Z,92.34
2022-08-17T16:30:00.828Z,93.24
2022-08-17T16:35:08.901Z,93.71
2022-08-17T16:40:11.964Z,94.77
2022-08-17T16:45:18.538Z,95.33
2022-08-17T16:50:23.806Z,95.50
2022-08-17T16:55:26.869Z,95.30
2022-08-17T17:00:29.959Z,95.19
2022-08-17T17:05:34.974Z,93.69
2022-08-17T17:10:46.213Z,92.79
2022-08-17T17:15:55.065Z,91.61
2022-08-17T17:20:57.991Z,92.51
2022-08-17T17:26:12.059Z,93.70
2022-08-17T17:31:17.572Z,94.33
2022-08-17T17:36:40.192Z,95.84
2022-08-17T17:41:47.464Z,97.28
2022-08-17T17:46:55.181Z,98.54
2022-08-17T17:52:13.381Z,100.16
2022-08-17T17:57:24.670Z,100.86
2022-08-17T18:03:01.443Z,102.05
2022-08-17T18:08:35.697Z,103.46
2022-08-17T18:13:46.926Z,104.78
2022-08-17T18:18:52.295Z,106.66
2022-08-17T18:23:58.147Z,107.25
2022-08-17T18:29:32.071Z,108.77
2022-08-17T18:34:47.379Z,110.18
2022-08-17T18:39:50.239Z,111.20
2022-08-17T18:44:55.275Z,111.58
2022-08-17T18:50:19.061Z,112.52
2022-08-17T18:55:23.769Z,113.94
2022-08-17T19:00:39.542Z,113.96
2022-08-17T19:05:52.032Z,114.67
2022-08-17T19:11:22.026Z,115.48
2022-08-17T19:16:39.091Z,116.04
2022-08-17T19:22:16.995Z,116.31
2022-08-17T19:27:46.333Z,116.75
2022-08-17T19:32:48.790Z,118.79
2022-08-17T19:38:13.511Z,-5.51
2022-08-17T19:44:07.168Z,118.95
2022-08-17T19:49:33.503Z,-5.62
2022-08-17T19:54:55.381Z,-5.35
2022-08-17T20:00:01.848Z,-5.93
2022-08-17T20:05:16.827Z,-4.94
2022-08-17T20:10:26.762Z,-4.53
2022-08-17T20:15:31.627Z,-5.03
2022-08-17T20:20:42.022Z,-5.12
2022-08-17T20:26:10.079Z,-3.33
2022-08-17T20:32:05.497Z,-0.54
2022-08-17T20:37:13.638Z,0.83
2022-08-17T20:42:15.667Z,2.01
2022-08-17T20:47:27.127Z,1.41
2022-08-17T20:52:52.471Z,1.86
2022-08-17T20:57:54.548Z,1.61
2022-08-17T21:03:25.316Z,2.67
2022-08-17T21:08:59.123Z,2.51
2022-08-17T21:14:10.422Z,5.14
2022-08-17T21:20:09.773Z,7.22
2022-08-17T21:25:21.198Z,4.96
2022-08-17T21:30:29.406Z,5.93
2022-08-17T21:35:47.911Z,8.54
2022-08-17T21:40:52.802Z,11.15
2022-08-17T21:46:23.531Z,12.15
2022-08-17T21:51:28.739Z,13.14
2022-08-17T21:56:33.717Z,13.37
2022-08-17T22:01:38.550Z,10.94
2022-08-17T22:06:57.335Z,9.86
2022-08-17T22:12:13.731Z,9.05
2022-08-17T22:17:20.478Z,10.02
2022-08-17T22:22:31.158Z,11.81
2022-08-17T22:27:50.865Z,20.95
2022-08-17T22:32:53.636Z,22.35
2022-08-17T22:37:56.746Z,24.91
2022-08-17T22:43:00.757Z,24.85
2022-08-17T22:48:05.274Z,24.08
2022-08-17T22:53:34.628Z,24.07
2022-08-17T22:59:01.798Z,22.91
2022-08-17T23:04:07.599Z,24.95
2022-08-17T23:09:09.844Z,27.10
2022-08-17T23:14:13.753Z,26.44
2022-08-17T23:19:19.216Z,26.87
2022-08-17T23:24:23.972Z,23.60
2022-08-17T23:29:29.635Z,20.67
2022-08-17T23:34:31.857Z,21.29
2022-08-17T23:39:34.688Z,23.83
2022-08-17T23:44:38.259Z,26.44
2022-08-17T23:49:41.346Z,26.28
2022-08-17T23:54:46.671Z,27.49
2022-08-17T23:59:49.333Z,26.30
